createdAt,value
2016-11-06T00:00:22.777Z,994.88
2016-11-06T00:01:04.324Z,994.82
2016-11-06T00:01:45.714Z,994.87
2016-11-06T00:03:40.509Z,994.83
2016-11-06T00:04:22.240Z,994.8
2016-11-06T00:05:03.825Z,994.8
2016-11-06T00:05:45.664Z,994.79
2016-11-06T00:06:27.312Z,994.81
2016-11-06T00:07:08.743Z,994.81
2016-11-06T00:07:50.271Z,994.81
2016-11-06T00:08:32.166Z,994.86
2016-11-06T00:09:13.875Z,994.86
2016-11-06T00:09:55.458Z,994.9
2016-11-06T00:10:37.146Z,994.86
2016-11-06T00:11:18.731Z,994.87
2016-11-06T00:12:00.358Z,994.88
2016-11-06T00:12:42.016Z,994.91
2016-11-06T00:13:23.614Z,994.94
2016-11-06T00:14:05.276Z,994.91
2016-11-06T00:14:46.926Z,994.9
2016-11-06T00:15:28.515Z,994.85
2016-11-06T00:16:10.227Z,994.91
2016-11-06T00:16:51.982Z,994.91
2016-11-06T00:17:33.628Z,994.86
2016-11-06T00:18:15.352Z,994.94
2016-11-06T00:18:56.968Z,994.91
2016-11-06T00:19:38.712Z,994.89
2016-11-06T00:20:20.450Z,994.89
2016-11-06T00:21:02.285Z,994.89
2016-11-06T00:23:23.134Z,994.9
2016-11-06T00:24:04.781Z,994.91
2016-11-06T00:24:46.373Z,994.93
2016-11-06T00:25:28.008Z,994.9
2016-11-06T00:26:09.683Z,994.87
2016-11-06T00:26:51.386Z,994.87
2016-11-06T00:27:33.055Z,994.86
2016-11-06T00:28:14.870Z,994.86
2016-11-06T00:28:56.457Z,994.88
2016-11-06T00:29:38.208Z,994.87
2016-11-06T00:31:58.790Z,994.89
2016-11-06T00:32:40.600Z,994.89
2016-11-06T00:33:22.384Z,994.87
2016-11-06T00:34:04.131Z,994.85
2016-11-06T00:34:45.800Z,994.83
2016-11-06T00:35:27.451Z,994.89
2016-11-06T00:36:09.192Z,994.85
2016-11-06T00:36:50.748Z,994.82
2016-11-06T00:37:32.457Z,994.85
2016-11-06T00:38:14.281Z,994.84
2016-11-06T00:38:55.994Z,994.84
2016-11-06T00:39:37.912Z,994.83
2016-11-06T00:41:58.442Z,994.84
2016-11-06T00:42:40.167Z,994.81
2016-11-06T00:43:21.850Z,994.83
2016-11-06T00:45:36.995Z,994.84
2016-11-06T00:46:18.705Z,994.84
2016-11-06T00:47:00.369Z,994.82
2016-11-06T00:47:42.112Z,994.86
2016-11-06T00:48:23.828Z,994.86
2016-11-06T00:49:05.505Z,994.85
2016-11-06T00:49:47.212Z,994.85
2016-11-06T00:51:41.916Z,994.91
2016-11-06T00:53:57.248Z,994.88
2016-11-06T00:54:38.959Z,994.9
2016-11-06T00:55:20.658Z,994.94
2016-11-06T00:57:41.308Z,994.93
2016-11-06T00:58:23.017Z,994.94
2016-11-06T00:59:04.752Z,994.91
2016-11-06T00:59:46.460Z,994.9
2016-11-06T01:00:28.049Z,994.93
2016-11-06T01:02:28.082Z,994.99
2016-11-06T01:03:09.765Z,994.96
2016-11-06T01:03:51.598Z,994.94
2016-11-06T01:04:33.298Z,994.98
2016-11-06T01:05:14.847Z,995.01
2016-11-06T01:05:56.415Z,994.97
2016-11-06T01:06:38.104Z,994.98
2016-11-06T01:07:19.951Z,995.01
2016-11-06T01:08:01.395Z,994.97
2016-11-06T01:12:11.324Z,994.98
2016-11-06T01:12:52.885Z,995
2016-11-06T01:13:34.511Z,994.99
2016-11-06T01:14:16.037Z,995
2016-11-06T01:14:57.578Z,995
2016-11-06T01:15:39.351Z,994.99
2016-11-06T01:16:20.698Z,994.96
2016-11-06T01:17:02.333Z,994.96
2016-11-06T01:17:43.956Z,995
2016-11-06T01:18:25.708Z,994.93
2016-11-06T01:19:07.300Z,994.97
2016-11-06T01:19:49.042Z,994.96
2016-11-06T01:20:30.728Z,994.93
2016-11-06T01:21:12.250Z,994.97
2016-11-06T01:21:54.047Z,994.94
2016-11-06T01:22:35.664Z,994.95
2016-11-06T01:23:17.405Z,994.98
2016-11-06T01:23:59.230Z,994.92
2016-11-06T01:26:20.016Z,994.91
2016-11-06T01:27:01.706Z,994.92
2016-11-06T01:27:43.330Z,994.89
2016-11-06T01:28:24.982Z,994.92
2016-11-06T01:29:06.839Z,994.89
2016-11-06T01:29:48.548Z,994.87
2016-11-06T01:30:30.252Z,994.86
2016-11-06T01:31:11.909Z,994.85
2016-11-06T01:31:53.588Z,994.88
2016-11-06T01:34:14.351Z,994.81
2016-11-06T01:34:56.146Z,994.83
2016-11-06T01:37:27.323Z,994.82
2016-11-06T01:38:08.885Z,994.79
2016-11-06T01:38:50.642Z,994.78
2016-11-06T01:39:32.330Z,994.77
2016-11-06T01:41:27.120Z,994.74
2016-11-06T01:42:08.886Z,994.72
2016-11-06T01:46:13.672Z,994.73
2016-11-06T01:46:55.341Z,994.67
2016-11-06T01:47:36.867Z,994.7
2016-11-06T01:48:18.556Z,994.67
2016-11-06T01:48:59.970Z,994.66
2016-11-06T01:49:41.735Z,994.66
2016-11-06T01:50:23.430Z,994.63
2016-11-06T01:51:05.186Z,994.64
2016-11-06T01:51:46.840Z,994.66
2016-11-06T01:52:28.571Z,994.6
2016-11-06T01:53:10.357Z,994.6
2016-11-06T01:53:52.036Z,994.59
2016-11-06T01:56:23.223Z,994.58
2016-11-06T01:57:04.886Z,994.59
2016-11-06T01:57:46.369Z,994.56
2016-11-06T01:58:28.103Z,994.55
2016-11-06T01:59:09.691Z,994.55
2016-11-06T01:59:50.491Z,994.56
2016-11-06T02:00:31.031Z,994.6
2016-11-06T02:01:11.552Z,994.59
2016-11-06T02:01:52.085Z,994.62
2016-11-06T02:02:32.611Z,994.62
2016-11-06T02:03:13.136Z,994.57
2016-11-06T02:03:53.683Z,994.6
2016-11-06T02:04:34.221Z,994.56
2016-11-06T02:05:14.746Z,994.62
2016-11-06T02:05:55.295Z,994.59
2016-11-06T02:06:35.817Z,994.6
2016-11-06T02:07:16.358Z,994.6
2016-11-06T02:07:56.896Z,994.56
2016-11-06T02:08:37.414Z,994.59
2016-11-06T02:09:17.952Z,994.6
2016-11-06T02:09:58.484Z,994.62
2016-11-06T02:10:39.003Z,994.6
2016-11-06T02:11:19.550Z,994.61
2016-11-06T02:12:00.088Z,994.62
2016-11-06T02:12:40.627Z,994.62
2016-11-06T02:13:21.161Z,994.6
2016-11-06T02:14:01.674Z,994.62
2016-11-06T02:14:42.215Z,994.62
2016-11-06T02:15:22.749Z,994.61
2016-11-06T02:16:03.292Z,994.62
2016-11-06T02:16:43.852Z,994.6
2016-11-06T02:17:24.465Z,994.59
2016-11-06T02:18:04.988Z,994.58
2016-11-06T02:18:45.526Z,994.59
2016-11-06T02:19:26.069Z,994.57
2016-11-06T02:20:06.610Z,994.56
2016-11-06T02:20:47.144Z,994.61
2016-11-06T02:21:27.676Z,994.55
2016-11-06T02:22:08.192Z,994.55
2016-11-06T02:22:48.724Z,994.54
2016-11-06T02:23:29.270Z,994.55
2016-11-06T02:24:09.801Z,994.54
2016-11-06T02:24:50.328Z,994.52
2016-11-06T02:25:30.845Z,994.58
2016-11-06T02:26:11.378Z,994.57
2016-11-06T02:26:51.910Z,994.56
2016-11-06T02:27:32.452Z,994.57
2016-11-06T02:28:12.984Z,994.54
2016-11-06T02:28:53.520Z,994.54
2016-11-06T02:29:34.059Z,994.58
2016-11-06T02:30:14.587Z,994.56
2016-11-06T02:30:55.120Z,994.57
2016-11-06T02:31:35.667Z,994.56
2016-11-06T02:32:16.203Z,994.56
2016-11-06T02:32:56.724Z,994.55
2016-11-06T02:33:37.255Z,994.54
2016-11-06T02:34:17.783Z,994.56
2016-11-06T02:34:58.330Z,994.51
2016-11-06T02:35:38.864Z,994.56
2016-11-06T02:36:19.397Z,994.52
2016-11-06T02:36:59.912Z,994.53
2016-11-06T02:37:40.439Z,994.58
2016-11-06T02:38:20.964Z,994.56
2016-11-06T02:39:01.476Z,994.56
2016-11-06T02:39:42.002Z,994.56
2016-11-06T02:40:22.527Z,994.61
2016-11-06T02:41:03.071Z,994.59
2016-11-06T02:41:43.663Z,994.58
2016-11-06T02:42:24.265Z,994.58
2016-11-06T02:43:04.789Z,994.63
2016-11-06T02:43:45.302Z,994.59
2016-11-06T02:44:25.838Z,994.57
2016-11-06T02:45:06.443Z,994.6
2016-11-06T02:45:47.027Z,994.66
2016-11-06T02:46:27.571Z,994.62
2016-11-06T02:47:08.073Z,994.58
2016-11-06T02:47:48.617Z,994.62
2016-11-06T02:48:29.147Z,994.61
2016-11-06T02:49:09.684Z,994.63
2016-11-06T02:49:50.228Z,994.63
2016-11-06T02:50:30.766Z,994.61
2016-11-06T02:51:11.281Z,994.59
2016-11-06T02:51:51.817Z,994.6
2016-11-06T02:52:32.352Z,994.62
2016-11-06T02:53:12.888Z,994.62
2016-11-06T02:53:53.427Z,994.59
2016-11-06T02:54:33.945Z,994.64
2016-11-06T02:55:14.463Z,994.64
2016-11-06T02:55:55.004Z,994.63
2016-11-06T02:56:35.541Z,994.66
2016-11-06T02:57:16.077Z,994.62
2016-11-06T02:57:56.592Z,994.66
2016-11-06T02:58:37.127Z,994.61
2016-11-06T02:59:17.659Z,994.63
2016-11-06T02:59:58.195Z,994.62
2016-11-06T03:00:38.743Z,994.6
2016-11-06T03:01:19.290Z,994.6
2016-11-06T03:01:59.833Z,994.59
2016-11-06T03:02:40.369Z,994.57
2016-11-06T03:03:20.895Z,994.57
2016-11-06T03:04:01.468Z,994.56
2016-11-06T03:04:42.040Z,994.55
2016-11-06T03:05:22.711Z,994.57
2016-11-06T03:06:03.238Z,994.54
2016-11-06T03:06:43.763Z,994.54
2016-11-06T03:07:24.282Z,994.54
2016-11-06T03:08:04.812Z,994.52
2016-11-06T03:08:45.343Z,994.5
2016-11-06T03:09:25.866Z,994.49
2016-11-06T03:10:06.396Z,994.51
2016-11-06T03:10:46.918Z,994.51
2016-11-06T03:11:27.458Z,994.51
2016-11-06T03:12:07.994Z,994.5
2016-11-06T03:12:48.509Z,994.54
2016-11-06T03:13:29.040Z,994.52
2016-11-06T03:14:09.557Z,994.5
2016-11-06T03:14:50.092Z,994.51
2016-11-06T03:15:30.598Z,994.49
2016-11-06T03:16:11.131Z,994.56
2016-11-06T03:16:51.690Z,994.52
2016-11-06T03:17:32.218Z,994.51
2016-11-06T03:18:12.745Z,994.53
2016-11-06T03:18:53.265Z,994.52
2016-11-06T03:19:33.781Z,994.53
2016-11-06T03:20:14.315Z,994.55
2016-11-06T03:20:54.842Z,994.55
2016-11-06T03:21:35.362Z,994.57
2016-11-06T03:22:15.894Z,994.54
2016-11-06T03:22:56.427Z,994.56
2016-11-06T03:23:36.940Z,994.51
2016-11-06T03:24:17.458Z,994.53
2016-11-06T03:24:57.997Z,994.54
2016-11-06T03:25:38.528Z,994.54
2016-11-06T03:26:19.052Z,994.57
2016-11-06T03:26:59.594Z,994.56
2016-11-06T03:27:40.177Z,994.54
2016-11-06T03:28:20.713Z,994.58
2016-11-06T03:29:01.242Z,994.55
2016-11-06T03:29:41.776Z,994.59
2016-11-06T03:30:22.402Z,994.57
2016-11-06T03:31:02.942Z,994.55
2016-11-06T03:31:43.479Z,994.6
2016-11-06T03:32:23.989Z,994.6
2016-11-06T03:33:04.516Z,994.57
2016-11-06T03:33:45.033Z,994.57
2016-11-06T03:34:25.571Z,994.56
2016-11-06T03:35:06.091Z,994.6
2016-11-06T03:35:46.621Z,994.58
2016-11-06T03:36:27.145Z,994.61
2016-11-06T03:37:07.679Z,994.65
2016-11-06T03:37:48.221Z,994.64
2016-11-06T03:38:28.755Z,994.65
2016-11-06T03:39:09.279Z,994.62
2016-11-06T03:39:49.808Z,994.63
2016-11-06T03:40:30.344Z,994.61
2016-11-06T03:41:10.878Z,994.63
2016-11-06T03:41:51.408Z,994.62
2016-11-06T03:42:31.929Z,994.61
2016-11-06T03:43:12.463Z,994.61
2016-11-06T03:43:52.988Z,994.6
2016-11-06T03:44:33.526Z,994.58
2016-11-06T03:45:14.054Z,994.6
2016-11-06T03:45:54.576Z,994.6
2016-11-06T03:46:35.100Z,994.6
2016-11-06T03:47:15.640Z,994.6
2016-11-06T03:47:56.181Z,994.6
2016-11-06T03:48:36.721Z,994.59
2016-11-06T03:49:17.249Z,994.61
2016-11-06T03:49:57.787Z,994.61
2016-11-06T03:50:38.327Z,994.61
2016-11-06T03:51:18.868Z,994.6
2016-11-06T03:51:59.396Z,994.56
2016-11-06T03:52:39.927Z,994.54
2016-11-06T03:53:20.451Z,994.56
2016-11-06T03:54:00.978Z,994.56
2016-11-06T03:54:41.503Z,994.57
2016-11-06T03:55:22.039Z,994.55
2016-11-06T03:56:02.574Z,994.54
2016-11-06T03:56:43.103Z,994.54
2016-11-06T03:57:23.654Z,994.5
2016-11-06T03:58:04.159Z,994.52
2016-11-06T03:58:44.699Z,994.49
2016-11-06T03:59:25.236Z,994.5
2016-11-06T04:00:05.761Z,994.52
2016-11-06T04:00:46.277Z,994.47
2016-11-06T04:01:26.803Z,994.5
2016-11-06T04:02:07.330Z,994.52
2016-11-06T04:02:47.858Z,994.5
2016-11-06T04:03:28.404Z,994.46
2016-11-06T04:04:08.924Z,994.47
2016-11-06T04:04:49.446Z,994.47
2016-11-06T04:05:29.982Z,994.47
2016-11-06T04:06:10.506Z,994.43
2016-11-06T04:06:51.047Z,994.44
2016-11-06T04:07:31.562Z,994.45
2016-11-06T04:08:12.090Z,994.42
2016-11-06T04:08:52.624Z,994.41
2016-11-06T04:09:33.148Z,994.45
2016-11-06T04:10:13.685Z,994.47
2016-11-06T04:10:54.201Z,994.42
2016-11-06T04:11:34.730Z,994.4
2016-11-06T04:12:15.269Z,994.41
2016-11-06T04:12:55.801Z,994.41
2016-11-06T04:13:36.338Z,994.43
2016-11-06T04:14:16.866Z,994.4
2016-11-06T04:14:57.398Z,994.4
2016-11-06T04:15:37.935Z,994.37
2016-11-06T04:16:18.481Z,994.4
2016-11-06T04:16:59.023Z,994.34
2016-11-06T04:17:39.545Z,994.36
2016-11-06T04:18:20.063Z,994.38
2016-11-06T04:19:00.602Z,994.4
2016-11-06T04:19:41.140Z,994.43
2016-11-06T04:20:21.647Z,994.4
2016-11-06T04:21:02.182Z,994.42
2016-11-06T04:21:42.712Z,994.47
2016-11-06T04:22:23.259Z,994.43
2016-11-06T04:23:03.798Z,994.46
2016-11-06T04:23:44.333Z,994.45
2016-11-06T04:24:24.857Z,994.42
2016-11-06T04:25:05.386Z,994.46
2016-11-06T04:25:45.918Z,994.45
2016-11-06T04:26:26.450Z,994.45
2016-11-06T04:27:06.995Z,994.46
2016-11-06T04:27:47.529Z,994.47
2016-11-06T04:28:28.040Z,994.49
2016-11-06T04:29:08.580Z,994.48
2016-11-06T04:29:49.117Z,994.47
2016-11-06T04:30:29.647Z,994.49
2016-11-06T04:31:10.183Z,994.45
2016-11-06T04:31:50.691Z,994.46
2016-11-06T04:32:31.224Z,994.47
2016-11-06T04:33:11.770Z,994.47
2016-11-06T04:33:52.292Z,994.45
2016-11-06T04:34:32.838Z,994.45
2016-11-06T04:35:13.355Z,994.47
2016-11-06T04:35:53.891Z,994.5
2016-11-06T04:36:34.418Z,994.48
2016-11-06T04:37:14.941Z,994.42
2016-11-06T04:37:55.448Z,994.49
2016-11-06T04:38:35.982Z,994.47
2016-11-06T04:39:16.527Z,994.44
2016-11-06T04:39:57.042Z,994.44
2016-11-06T04:40:37.548Z,994.44
2016-11-06T04:41:18.081Z,994.43
2016-11-06T04:41:58.617Z,994.44
2016-11-06T04:42:39.143Z,994.38
2016-11-06T04:43:19.662Z,994.37
2016-11-06T04:44:00.202Z,994.35
2016-11-06T04:44:40.736Z,994.4
2016-11-06T04:45:21.280Z,994.35
2016-11-06T04:46:01.815Z,994.38
2016-11-06T04:46:42.352Z,994.34
2016-11-06T04:47:22.867Z,994.34
2016-11-06T04:48:03.397Z,994.37
2016-11-06T04:48:43.931Z,994.34
2016-11-06T04:49:24.463Z,994.37
2016-11-06T04:50:04.989Z,994.36
2016-11-06T04:50:45.516Z,994.38
2016-11-06T04:51:26.052Z,994.39
2016-11-06T04:52:06.585Z,994.32
2016-11-06T04:52:47.099Z,994.32
2016-11-06T04:53:27.613Z,994.41
2016-11-06T04:54:08.128Z,994.3
2016-11-06T04:54:48.667Z,994.36
2016-11-06T04:55:29.202Z,994.35
2016-11-06T04:56:09.718Z,994.34
2016-11-06T04:56:50.233Z,994.31
2016-11-06T04:57:30.777Z,994.35
2016-11-06T04:58:11.307Z,994.36
2016-11-06T04:58:51.841Z,994.38
2016-11-06T04:59:32.372Z,994.35
2016-11-06T05:00:12.909Z,994.35
2016-11-06T05:00:53.427Z,994.39
2016-11-06T05:01:33.956Z,994.35
2016-11-06T05:02:14.468Z,994.36
2016-11-06T05:02:55.003Z,994.37
2016-11-06T05:03:35.524Z,994.38
2016-11-06T05:04:16.062Z,994.35
2016-11-06T05:04:56.597Z,994.36
2016-11-06T05:05:37.108Z,994.38
2016-11-06T05:06:17.644Z,994.35
2016-11-06T05:06:58.189Z,994.36
2016-11-06T05:07:38.738Z,994.3
2016-11-06T05:08:19.252Z,994.33
2016-11-06T05:08:59.774Z,994.33
2016-11-06T05:09:40.307Z,994.32
2016-11-06T05:10:20.846Z,994.36
2016-11-06T05:11:01.390Z,994.31
2016-11-06T05:11:41.930Z,994.36
2016-11-06T05:12:22.466Z,994.28
2016-11-06T05:13:02.985Z,994.34
2016-11-06T05:13:43.497Z,994.35
2016-11-06T05:14:24.041Z,994.35
2016-11-06T05:15:04.576Z,994.39
2016-11-06T05:15:45.089Z,994.39
2016-11-06T05:16:25.612Z,994.33
2016-11-06T05:17:06.124Z,994.38
2016-11-06T05:17:46.664Z,994.33
2016-11-06T05:18:27.170Z,994.34
2016-11-06T05:19:07.699Z,994.31
2016-11-06T05:19:48.221Z,994.36
2016-11-06T05:20:28.736Z,994.35
2016-11-06T05:21:09.269Z,994.38
2016-11-06T05:21:49.777Z,994.35
2016-11-06T05:22:30.318Z,994.36
2016-11-06T05:23:10.823Z,994.36
2016-11-06T05:23:51.367Z,994.41
2016-11-06T05:24:31.888Z,994.41
2016-11-06T05:25:12.408Z,994.41
2016-11-06T05:25:52.941Z,994.43
2016-11-06T05:26:33.452Z,994.42
2016-11-06T05:27:13.974Z,994.41
2016-11-06T05:27:54.493Z,994.42
2016-11-06T05:28:35.006Z,994.42
2016-11-06T05:29:15.518Z,994.42
2016-11-06T05:29:56.033Z,994.4
2016-11-06T05:30:36.576Z,994.37
2016-11-06T05:31:17.100Z,994.41
2016-11-06T05:31:57.631Z,994.42
2016-11-06T05:32:38.153Z,994.43
2016-11-06T05:33:18.675Z,994.44
2016-11-06T05:33:59.215Z,994.46
2016-11-06T05:34:39.739Z,994.44
2016-11-06T05:35:20.264Z,994.48
2016-11-06T05:36:00.792Z,994.49
2016-11-06T05:36:41.324Z,994.56
2016-11-06T05:37:21.844Z,994.49
2016-11-06T05:38:02.398Z,994.55
2016-11-06T05:38:42.933Z,994.54
2016-11-06T05:39:23.454Z,994.55
2016-11-06T05:40:03.972Z,994.55
2016-11-06T05:40:44.497Z,994.54
2016-11-06T05:41:25.004Z,994.49
2016-11-06T05:42:05.542Z,994.51
2016-11-06T05:42:46.063Z,994.54
2016-11-06T05:43:26.596Z,994.52
2016-11-06T05:44:07.139Z,994.56
2016-11-06T05:44:47.678Z,994.56
2016-11-06T05:45:28.181Z,994.57
2016-11-06T05:46:08.704Z,994.54
2016-11-06T05:46:49.228Z,994.53
2016-11-06T05:47:29.753Z,994.56
2016-11-06T05:48:10.271Z,994.54
2016-11-06T05:48:50.797Z,994.52
2016-11-06T05:49:31.330Z,994.57
2016-11-06T05:50:11.829Z,994.57
2016-11-06T05:50:52.371Z,994.53
2016-11-06T05:51:32.907Z,994.58
2016-11-06T05:52:13.432Z,994.56
2016-11-06T05:52:53.949Z,994.57
2016-11-06T05:53:34.471Z,994.58
2016-11-06T05:54:15.007Z,994.6
2016-11-06T05:54:55.504Z,994.61
2016-11-06T05:55:36.048Z,994.62
2016-11-06T05:56:16.584Z,994.64
2016-11-06T05:56:57.105Z,994.65
2016-11-06T05:57:37.634Z,994.64
2016-11-06T05:58:18.136Z,994.66
2016-11-06T05:58:58.657Z,994.66
2016-11-06T05:59:39.180Z,994.65
2016-11-06T06:00:19.676Z,994.66
2016-11-06T06:01:00.213Z,994.65
2016-11-06T06:01:40.747Z,994.63
2016-11-06T06:02:21.287Z,994.65
2016-11-06T06:03:01.835Z,994.65
2016-11-06T06:03:42.346Z,994.63
2016-11-06T06:04:22.854Z,994.66
2016-11-06T06:05:03.381Z,994.65
2016-11-06T06:05:43.881Z,994.62
2016-11-06T06:06:24.405Z,994.63
2016-11-06T06:07:04.932Z,994.65
2016-11-06T06:07:45.455Z,994.62
2016-11-06T06:08:25.959Z,994.63
2016-11-06T06:09:06.485Z,994.61
2016-11-06T06:09:46.982Z,994.65
2016-11-06T06:10:27.506Z,994.65
2016-11-06T06:11:08.032Z,994.66
2016-11-06T06:11:48.576Z,994.64
2016-11-06T06:12:29.080Z,994.63
2016-11-06T06:13:09.601Z,994.64
2016-11-06T06:13:50.135Z,994.62
2016-11-06T06:14:30.651Z,994.66
2016-11-06T06:15:11.171Z,994.63
2016-11-06T06:15:51.709Z,994.64
2016-11-06T06:16:32.221Z,994.68
2016-11-06T06:17:12.755Z,994.67
2016-11-06T06:17:53.278Z,994.67
2016-11-06T06:18:33.797Z,994.69
2016-11-06T06:19:14.333Z,994.68
2016-11-06T06:19:54.838Z,994.66
2016-11-06T06:20:35.359Z,994.72
2016-11-06T06:21:15.881Z,994.72
2016-11-06T06:21:56.407Z,994.74
2016-11-06T06:22:36.936Z,994.7
2016-11-06T06:23:17.486Z,994.75
2016-11-06T06:23:58.006Z,994.75
2016-11-06T06:24:38.519Z,994.75
2016-11-06T06:25:19.043Z,994.79
2016-11-06T06:25:59.564Z,994.8
2016-11-06T06:26:40.077Z,994.78
2016-11-06T06:27:20.586Z,994.81
2016-11-06T06:28:01.115Z,994.76
2016-11-06T06:28:41.645Z,994.76
2016-11-06T06:29:22.188Z,994.78
2016-11-06T06:30:02.705Z,994.8
2016-11-06T06:30:43.212Z,994.78
2016-11-06T06:31:23.748Z,994.82
2016-11-06T06:32:04.276Z,994.83
2016-11-06T06:32:44.806Z,994.79
2016-11-06T06:33:25.332Z,994.77
2016-11-06T06:34:05.850Z,994.78
2016-11-06T06:34:46.380Z,994.81
2016-11-06T06:35:26.887Z,994.8
2016-11-06T06:36:07.414Z,994.79
2016-11-06T06:36:47.922Z,994.8
2016-11-06T06:37:28.427Z,994.81
2016-11-06T06:38:08.961Z,994.82
2016-11-06T06:38:49.501Z,994.81
2016-11-06T06:39:30.034Z,994.82
2016-11-06T06:40:10.572Z,994.82
2016-11-06T06:40:51.078Z,994.88
2016-11-06T06:41:31.590Z,994.9
2016-11-06T06:42:12.092Z,994.85
2016-11-06T06:42:52.604Z,994.88
2016-11-06T06:43:33.142Z,994.94
2016-11-06T06:44:13.681Z,994.93
2016-11-06T06:44:54.210Z,994.98
2016-11-06T06:45:34.734Z,994.98
2016-11-06T06:46:15.270Z,994.97
2016-11-06T06:46:55.816Z,994.95
2016-11-06T06:47:36.347Z,994.97
2016-11-06T06:48:16.887Z,994.95
2016-11-06T06:48:57.390Z,994.98
2016-11-06T06:49:37.902Z,994.96
2016-11-06T06:50:18.427Z,994.98
2016-11-06T06:50:58.942Z,994.96
2016-11-06T06:51:39.469Z,994.99
2016-11-06T06:52:20.010Z,995.02
2016-11-06T06:53:00.530Z,994.98
2016-11-06T06:53:41.044Z,995.01
2016-11-06T06:54:21.579Z,995.03
2016-11-06T06:55:02.100Z,995.01
2016-11-06T06:55:42.614Z,995.03
2016-11-06T06:56:23.129Z,994.98
2016-11-06T06:57:03.664Z,995.02
2016-11-06T06:57:44.211Z,995.02
2016-11-06T06:58:24.732Z,995.06
2016-11-06T06:59:05.257Z,995.02
2016-11-06T06:59:45.785Z,995.03
2016-11-06T07:00:26.342Z,995.03
2016-11-06T07:01:06.864Z,995.03
2016-11-06T07:01:47.393Z,995.04
2016-11-06T07:02:27.911Z,995.02
2016-11-06T07:03:08.444Z,995
2016-11-06T07:03:48.973Z,995.02
2016-11-06T07:04:29.499Z,994.98
2016-11-06T07:05:10.035Z,995.01
2016-11-06T07:05:50.544Z,995.01
2016-11-06T07:06:31.072Z,995
2016-11-06T07:07:11.610Z,994.99
2016-11-06T07:07:52.152Z,995
2016-11-06T07:08:32.667Z,994.97
2016-11-06T07:09:13.199Z,994.99
2016-11-06T07:09:53.726Z,995
2016-11-06T07:10:34.254Z,995
2016-11-06T07:11:14.793Z,995
2016-11-06T07:11:55.329Z,994.98
2016-11-06T07:12:35.849Z,995.01
2016-11-06T07:13:16.384Z,995.03
2016-11-06T07:13:56.924Z,995.03
2016-11-06T07:14:37.463Z,995
2016-11-06T07:15:17.993Z,995.06
2016-11-06T07:15:58.512Z,995.05
2016-11-06T07:16:39.051Z,995.05
2016-11-06T07:17:19.584Z,995.05
2016-11-06T07:18:00.123Z,995.06
2016-11-06T07:18:40.664Z,995.06
2016-11-06T07:19:21.184Z,995.07
2016-11-06T07:20:01.723Z,995.06
2016-11-06T07:20:42.414Z,995.05
2016-11-06T07:21:23.010Z,995.05
2016-11-06T07:22:03.547Z,995.03
2016-11-06T07:22:44.140Z,995.04
2016-11-06T07:23:24.648Z,995.02
2016-11-06T07:24:05.395Z,995.02
2016-11-06T07:24:45.945Z,995
2016-11-06T07:25:26.548Z,995.02
2016-11-06T07:26:07.072Z,994.99
2016-11-06T07:26:47.611Z,995.01
2016-11-06T07:27:28.214Z,995.05
2016-11-06T07:28:08.759Z,994.98
2016-11-06T07:28:49.401Z,994.97
2016-11-06T07:29:29.926Z,994.98
2016-11-06T07:30:10.523Z,994.98
2016-11-06T07:30:51.063Z,994.97
2016-11-06T07:31:31.687Z,994.99
2016-11-06T07:32:12.216Z,994.98
2016-11-06T07:32:52.767Z,995
2016-11-06T07:33:33.394Z,995.02
2016-11-06T07:34:13.934Z,994.95
2016-11-06T07:34:54.526Z,994.98
2016-11-06T07:35:35.069Z,994.97
2016-11-06T07:36:15.618Z,994.97
2016-11-06T07:36:56.172Z,994.98
2016-11-06T07:37:36.723Z,994.99
2016-11-06T07:38:17.276Z,995.01
2016-11-06T07:38:57.805Z,995.01
2016-11-06T07:39:38.340Z,995.04
2016-11-06T07:40:18.874Z,995.02
2016-11-06T07:40:59.392Z,995.01
2016-11-06T07:41:40.157Z,994.99
2016-11-06T07:42:20.686Z,995
2016-11-06T07:43:01.358Z,995
2016-11-06T07:43:41.888Z,994.98
2016-11-06T07:44:22.425Z,995.02
2016-11-06T07:45:02.951Z,994.99
2016-11-06T07:45:43.534Z,994.98
2016-11-06T07:46:24.072Z,994.95
2016-11-06T07:47:04.602Z,994.99
2016-11-06T07:47:45.165Z,994.95
2016-11-06T07:48:25.689Z,994.96
2016-11-06T07:49:06.207Z,994.97
2016-11-06T07:49:46.735Z,994.92
2016-11-06T07:50:27.263Z,994.98
2016-11-06T07:51:07.782Z,994.94
2016-11-06T07:51:48.289Z,994.98
2016-11-06T07:52:28.822Z,994.98
2016-11-06T07:53:09.357Z,994.95
2016-11-06T07:53:49.882Z,994.95
2016-11-06T07:54:30.404Z,994.9
2016-11-06T07:55:10.956Z,994.89
2016-11-06T07:55:51.487Z,994.9
2016-11-06T07:56:32.026Z,994.92
2016-11-06T07:57:12.561Z,994.85
2016-11-06T07:57:53.076Z,994.89
2016-11-06T07:58:33.606Z,994.91
2016-11-06T07:59:14.145Z,994.92
2016-11-06T07:59:54.672Z,994.96
2016-11-06T08:00:35.204Z,994.96
2016-11-06T08:01:15.714Z,994.94
2016-11-06T08:01:56.239Z,994.95
2016-11-06T08:02:36.785Z,994.95
2016-11-06T08:03:17.312Z,994.94
2016-11-06T08:03:57.832Z,994.94
2016-11-06T08:04:38.348Z,994.93
2016-11-06T08:05:18.881Z,994.96
2016-11-06T08:05:59.407Z,994.98
2016-11-06T08:06:39.918Z,994.96
2016-11-06T08:07:20.478Z,994.98
2016-11-06T08:08:00.991Z,994.97
2016-11-06T08:08:41.535Z,995
2016-11-06T08:09:22.045Z,994.93
2016-11-06T08:10:02.557Z,994.91
2016-11-06T08:10:43.084Z,994.95
2016-11-06T08:11:23.622Z,994.97
2016-11-06T08:12:04.130Z,994.97
2016-11-06T08:12:44.638Z,994.95
2016-11-06T08:13:25.143Z,994.97
2016-11-06T08:14:05.668Z,994.96
2016-11-06T08:14:46.190Z,994.92
2016-11-06T08:15:26.703Z,994.94
2016-11-06T08:16:07.244Z,994.91
2016-11-06T08:16:47.760Z,994.91
2016-11-06T08:17:28.300Z,994.93
2016-11-06T08:18:08.838Z,994.92
2016-11-06T08:18:49.391Z,994.87
2016-11-06T08:19:29.902Z,994.85
2016-11-06T08:20:10.415Z,994.87
2016-11-06T08:20:50.934Z,994.9
2016-11-06T08:21:31.445Z,994.89
2016-11-06T08:22:11.971Z,994.88
2016-11-06T08:22:52.503Z,994.94
2016-11-06T08:23:33.056Z,994.96
2016-11-06T08:24:13.592Z,994.92
2016-11-06T08:24:54.119Z,994.94
2016-11-06T08:25:34.650Z,994.88
2016-11-06T08:26:15.173Z,994.89
2016-11-06T08:26:55.704Z,994.88
2016-11-06T08:27:36.229Z,994.89
2016-11-06T08:28:16.749Z,994.87
2016-11-06T08:28:57.265Z,994.86
2016-11-06T08:29:37.787Z,994.82
2016-11-06T08:30:18.313Z,994.86
2016-11-06T08:30:58.847Z,994.9
2016-11-06T08:31:39.392Z,994.87
2016-11-06T08:32:19.908Z,994.89
2016-11-06T08:33:00.430Z,994.93
2016-11-06T08:33:40.950Z,994.91
2016-11-06T08:34:21.464Z,994.91
2016-11-06T08:35:02.001Z,994.94
2016-11-06T08:35:42.511Z,994.94
2016-11-06T08:36:23.045Z,994.95
2016-11-06T08:37:03.569Z,994.94
2016-11-06T08:37:44.091Z,994.93
2016-11-06T08:38:24.609Z,994.95
2016-11-06T08:39:05.130Z,994.95
2016-11-06T08:39:45.657Z,994.92
2016-11-06T08:40:26.188Z,994.98
2016-11-06T08:41:06.695Z,994.96
2016-11-06T08:41:47.213Z,994.95
2016-11-06T08:42:27.735Z,994.97
2016-11-06T08:43:08.282Z,994.95
2016-11-06T08:43:48.780Z,994.98
2016-11-06T08:44:29.320Z,995
2016-11-06T08:45:09.824Z,995
2016-11-06T08:45:50.352Z,994.95
2016-11-06T08:46:30.867Z,994.94
2016-11-06T08:47:11.401Z,994.94
2016-11-06T08:47:51.900Z,994.99
2016-11-06T08:48:32.418Z,994.97
2016-11-06T08:49:12.940Z,994.97
2016-11-06T08:49:53.439Z,994.99
2016-11-06T08:50:33.969Z,994.97
2016-11-06T08:51:14.495Z,995.02
2016-11-06T08:51:54.984Z,994.99
2016-11-06T08:52:35.681Z,994.94
2016-11-06T08:53:16.435Z,994.93
2016-11-06T08:55:10.574Z,994.92
2016-11-06T08:55:51.096Z,994.96
2016-11-06T08:56:31.611Z,994.97
2016-11-06T08:57:12.126Z,994.96
2016-11-06T08:57:52.647Z,994.99
2016-11-06T08:58:33.174Z,994.98
2016-11-06T08:59:13.683Z,994.98
2016-11-06T08:59:54.202Z,994.96
2016-11-06T09:00:34.721Z,994.95